Main page
METAR-TAF:

METAR-TAF

Airports :

Herat, Afghanistan

Herat International Airport

latitude: 34-13N, longitude: 062-13E, elevation: 964 m

Current weather observation

The report was made 59 minutes ago, at 03:55 UTC
Wind 4 kt from the West
Temperature 25°C
Humidity 17%
Pressure 1013 hPa
Visibility 10 km or more
no clouds below 1500 m and no cumulonimbus

METAR: OAHR 240355Z 28004KT CAVOK 25/M02 Q1013 RMK BLU

Time: 09:24 (04:54 UTC)

Forecast

The report was made 3 hours and 24 minutes ago, at 01:30 UTC
Forecast valid from 24 at 02 UTC to 24 at 24 UTC
Wind 5 kt from the North/Northeast
Visibility 10 km or more
no clouds below 1500 m and no cumulonimbus
Becoming
from 23 at 05 UTC to 23 at 07 UTC
Wind 15 kt from the North/Northeast

TAF: OAHR 240130Z 2402/2424 03005KT CAVOK BECMG 2305/2307 02015KT

Weather observations and forecasts of more than 4000 airports (METAR and TAF reports).

The available stations are represented by yellow and red dots on the map.

Hover mouse over dot to see the name of the station.

Then click to see weather observations and forecasts.

To change the map : click on the green buttons with a black cross to zoom in, on the green button with a dash to zoom out, or on the green arrows for adjacent maps.


METAR-TAF: